createdAt,value
2023-03-22T00:01:59.010Z,30.60
2023-03-22T00:04:31.645Z,30.10
2023-03-22T00:07:04.421Z,27.30
2023-03-22T00:09:38.028Z,27.10
2023-03-22T00:12:11.112Z,25.70
2023-03-22T00:14:45.727Z,27.90
2023-03-22T00:17:19.668Z,25.00
2023-03-22T00:19:54.925Z,26.20
2023-03-22T00:22:27.879Z,27.20
2023-03-22T00:25:00.715Z,26.60
2023-03-22T00:27:34.041Z,26.00
2023-03-22T00:30:07.414Z,26.80
2023-03-22T00:32:42.517Z,26.50
2023-03-22T00:35:15.309Z,26.60
2023-03-22T00:37:53.124Z,31.60
2023-03-22T00:40:26.224Z,26.80
2023-03-22T00:42:59.325Z,26.10
2023-03-22T00:45:36.499Z,28.50
2023-03-22T00:48:10.282Z,26.90
2023-03-22T00:50:45.093Z,25.90
2023-03-22T00:53:18.481Z,27.80
2023-03-22T00:55:57.572Z,34.90
2023-03-22T00:58:31.616Z,28.00
2023-03-22T01:01:04.947Z,36.00
2023-03-22T01:03:39.732Z,37.20
2023-03-22T01:06:13.380Z,39.10
2023-03-22T01:08:46.285Z,39.80
2023-03-22T01:11:19.378Z,46.30
2023-03-22T01:13:52.136Z,46.90
2023-03-22T01:16:24.725Z,45.00
2023-03-22T01:18:57.712Z,51.30
2023-03-22T01:21:30.671Z,51.00
2023-03-22T01:24:03.466Z,49.80
2023-03-22T01:26:36.414Z,45.00
2023-03-22T01:29:09.142Z,49.30
2023-03-22T01:31:41.848Z,48.40
2023-03-22T01:34:14.692Z,48.80
2023-03-22T01:36:48.087Z,49.40
2023-03-22T01:39:21.125Z,53.50
2023-03-22T01:41:56.013Z,52.50
2023-03-22T01:44:32.049Z,54.20
2023-03-22T01:47:05.574Z,51.40
2023-03-22T01:49:38.698Z,51.50
2023-03-22T01:52:13.116Z,51.90
2023-03-22T01:55:12.997Z,55.00
2023-03-22T01:57:50.431Z,54.30
2023-03-22T02:00:28.423Z,56.60
2023-03-22T02:03:28.832Z,58.80
2023-03-22T02:06:01.889Z,57.00
2023-03-22T02:08:35.084Z,59.40
2023-03-22T02:11:15.404Z,56.10
2023-03-22T02:14:09.422Z,60.80
2023-03-22T02:17:09.378Z,61.50
2023-03-22T02:20:16.792Z,63.70
2023-03-22T02:23:02.421Z,66.60
2023-03-22T02:26:05.434Z,65.20
2023-03-22T02:28:45.894Z,57.70
2023-03-22T02:31:28.262Z,53.20
2023-03-22T02:34:32.676Z,48.80
2023-03-22T02:37:28.517Z,51.10
2023-03-22T02:40:02.761Z,51.50
2023-03-22T02:42:45.573Z,50.50
2023-03-22T02:45:19.976Z,49.40
2023-03-22T02:47:56.430Z,48.90
2023-03-22T02:50:30.019Z,47.20
2023-03-22T02:53:04.865Z,45.10
2023-03-22T02:55:39.351Z,46.80
2023-03-22T02:58:13.809Z,47.30
2023-03-22T03:00:46.686Z,47.60
2023-03-22T03:03:20.438Z,46.60
2023-03-22T03:05:54.884Z,46.20
2023-03-22T03:08:27.598Z,46.30
2023-03-22T03:11:04.869Z,47.10
2023-03-22T03:13:37.817Z,52.00
2023-03-22T03:16:17.763Z,48.90
2023-03-22T03:18:55.955Z,45.30
2023-03-22T03:21:32.991Z,47.10
2023-03-22T03:24:21.131Z,47.10
2023-03-22T03:26:58.225Z,45.10
2023-03-22T03:29:34.843Z,49.10
2023-03-22T03:32:11.358Z,48.10
2023-03-22T03:34:53.120Z,45.50
2023-03-22T03:37:27.447Z,45.40
2023-03-22T03:40:10.068Z,46.00
2023-03-22T03:42:45.818Z,44.60
2023-03-22T03:45:19.040Z,47.10
2023-03-22T03:47:57.237Z,45.70
2023-03-22T03:50:30.344Z,43.70
2023-03-22T03:53:04.215Z,43.30
2023-03-22T03:55:37.960Z,44.00
2023-03-22T03:58:13.283Z,48.10
2023-03-22T04:00:47.802Z,51.00
2023-03-22T04:03:39.279Z,54.30
2023-03-22T04:06:19.156Z,51.30
2023-03-22T04:08:56.843Z,50.50
2023-03-22T04:11:33.520Z,49.40
2023-03-22T04:14:08.338Z,49.00
2023-03-22T04:16:41.364Z,44.60
2023-03-22T04:19:16.819Z,42.50
2023-03-22T04:21:53.345Z,42.10
2023-03-22T04:24:26.618Z,43.10
2023-03-22T04:26:59.523Z,43.60
2023-03-22T04:29:48.887Z,47.00
2023-03-22T04:33:01.528Z,45.80
2023-03-22T04:35:57.441Z,40.30
2023-03-22T04:38:37.587Z,39.10
2023-03-22T04:41:11.012Z,38.60
2023-03-22T04:43:52.012Z,40.60
2023-03-22T04:46:25.073Z,38.00
2023-03-22T04:49:05.611Z,37.30
2023-03-22T04:51:40.685Z,39.20
2023-03-22T04:54:34.001Z,36.90
2023-03-22T04:57:07.630Z,37.90
2023-03-22T04:59:45.050Z,38.60
2023-03-22T05:02:21.138Z,42.20
2023-03-22T05:04:54.627Z,40.80
2023-03-22T05:07:39.465Z,40.10
2023-03-22T05:10:16.691Z,43.40
2023-03-22T05:12:50.099Z,41.20
2023-03-22T05:15:36.115Z,46.00
2023-03-22T05:18:10.676Z,41.80
2023-03-22T05:20:43.681Z,44.10
2023-03-22T05:23:26.137Z,43.20
2023-03-22T05:26:02.237Z,40.60
2023-03-22T05:28:36.590Z,45.40
2023-03-22T05:31:28.908Z,42.50
2023-03-22T05:34:09.991Z,46.70
2023-03-22T05:36:43.534Z,43.10
2023-03-22T05:39:38.558Z,40.70
2023-03-22T05:42:13.248Z,40.70
2023-03-22T05:44:47.091Z,40.50
2023-03-22T05:47:20.901Z,40.70
2023-03-22T05:50:09.713Z,38.90
2023-03-22T05:52:45.777Z,38.50
2023-03-22T05:55:39.608Z,41.40
2023-03-22T05:58:19.352Z,38.30
2023-03-22T06:00:52.944Z,40.40
2023-03-22T06:03:31.427Z,39.30
2023-03-22T06:06:12.500Z,39.70
2023-03-22T06:09:10.464Z,38.20
2023-03-22T06:11:55.583Z,36.30
2023-03-22T06:14:28.753Z,34.40
2023-03-22T06:17:20.981Z,36.10
2023-03-22T06:19:56.648Z,34.70
2023-03-22T06:22:33.609Z,36.10
2023-03-22T06:25:08.232Z,36.20
2023-03-22T06:27:45.627Z,33.90
2023-03-22T06:30:19.381Z,36.30
2023-03-22T06:33:09.045Z,36.00
2023-03-22T06:35:44.618Z,33.80
2023-03-22T06:38:20.455Z,35.30
2023-03-22T06:40:53.476Z,34.30
2023-03-22T06:43:26.490Z,35.10
2023-03-22T06:46:03.812Z,31.80
2023-03-22T06:48:41.504Z,31.40
2023-03-22T06:51:21.022Z,32.80
2023-03-22T06:53:54.116Z,32.40
2023-03-22T06:56:27.280Z,32.20
2023-03-22T06:59:00.279Z,31.40
2023-03-22T07:01:34.290Z,32.50
2023-03-22T07:04:08.441Z,33.60
2023-03-22T07:06:41.358Z,33.40
2023-03-22T07:09:14.143Z,34.70
2023-03-22T07:11:47.221Z,35.40
2023-03-22T07:14:22.412Z,34.00
2023-03-22T07:17:15.837Z,32.30
2023-03-22T07:19:54.730Z,33.60
2023-03-22T07:22:28.394Z,38.10
2023-03-22T07:25:04.996Z,32.50
2023-03-22T07:27:57.381Z,30.00
2023-03-22T07:30:31.276Z,28.20
2023-03-22T07:33:04.496Z,30.70
2023-03-22T07:35:37.455Z,28.80
2023-03-22T07:38:11.200Z,26.50
2023-03-22T07:40:44.232Z,29.80
2023-03-22T07:43:18.140Z,29.80
2023-03-22T07:46:22.225Z,31.50
2023-03-22T07:49:07.395Z,31.20
2023-03-22T07:52:06.875Z,31.10
2023-03-22T07:54:40.551Z,33.30
2023-03-22T07:57:16.486Z,32.10
2023-03-22T07:59:58.757Z,36.70
2023-03-22T08:02:49.068Z,34.90
2023-03-22T08:05:42.982Z,33.50
2023-03-22T08:08:18.457Z,31.10
2023-03-22T08:10:54.814Z,28.40
2023-03-22T08:13:28.540Z,25.60
2023-03-22T08:16:03.860Z,24.50
2023-03-22T08:18:37.323Z,23.20
2023-03-22T08:21:10.962Z,21.20
2023-03-22T08:23:45.654Z,23.00
2023-03-22T08:26:39.861Z,19.60
2023-03-22T08:29:23.390Z,21.00
2023-03-22T08:31:56.579Z,21.80
2023-03-22T08:34:29.203Z,23.20
2023-03-22T08:37:02.355Z,21.30
2023-03-22T08:39:35.337Z,20.40
2023-03-22T08:42:26.856Z,20.10
2023-03-22T08:44:59.935Z,20.90
2023-03-22T08:47:33.971Z,21.50
2023-03-22T08:50:10.719Z,18.80
2023-03-22T08:52:53.948Z,16.90
2023-03-22T08:55:36.307Z,15.10
2023-03-22T08:58:16.596Z,15.40
2023-03-22T09:03:56.587Z,14.20
2023-03-22T09:06:29.872Z,13.60
2023-03-22T09:09:02.583Z,16.00
2023-03-22T09:11:37.506Z,16.70
2023-03-22T09:14:10.215Z,12.90
2023-03-22T09:16:43.011Z,13.10
2023-03-22T09:19:16.998Z,11.70
2023-03-22T09:21:51.196Z,11.00
2023-03-22T09:24:34.049Z,10.60
2023-03-22T09:27:09.132Z,12.70
2023-03-22T09:29:42.774Z,11.20
2023-03-22T09:32:21.403Z,12.50
2023-03-22T09:35:01.108Z,13.70
2023-03-22T09:37:45.901Z,15.00
2023-03-22T09:40:19.831Z,15.50
2023-03-22T09:42:53.707Z,15.20
2023-03-22T09:45:35.464Z,13.90
2023-03-22T09:48:12.938Z,14.60
2023-03-22T09:50:49.134Z,12.00
2023-03-22T09:53:22.633Z,13.30
2023-03-22T09:55:59.131Z,13.60
2023-03-22T09:58:38.523Z,13.20
2023-03-22T10:01:16.323Z,14.50
2023-03-22T10:04:06.539Z,14.20
2023-03-22T10:06:46.888Z,14.30
2023-03-22T10:09:27.715Z,15.50
2023-03-22T10:12:05.411Z,14.80
2023-03-22T10:14:39.883Z,15.30
2023-03-22T10:17:16.083Z,13.50
2023-03-22T10:19:53.152Z,14.70
2023-03-22T10:22:30.037Z,15.90
2023-03-22T10:25:03.445Z,16.20
2023-03-22T10:27:36.574Z,13.80
2023-03-22T10:30:18.450Z,14.00
2023-03-22T10:32:57.885Z,13.50
2023-03-22T10:35:32.114Z,12.80
2023-03-22T10:38:05.738Z,14.40
2023-03-22T10:40:40.586Z,12.60
2023-03-22T10:43:18.609Z,11.80
2023-03-22T10:45:51.479Z,12.00
2023-03-22T10:48:33.262Z,12.50
2023-03-22T10:53:40.697Z,12.20
2023-03-22T10:56:15.968Z,12.30
2023-03-22T10:58:51.714Z,10.80
2023-03-22T11:01:31.689Z,11.30
2023-03-22T11:04:09.645Z,11.80
2023-03-22T11:06:54.751Z,11.60
2023-03-22T11:09:29.142Z,11.00
2023-03-22T11:12:02.091Z,9.90
2023-03-22T11:14:36.980Z,11.20
2023-03-22T11:17:14.464Z,11.70
2023-03-22T11:19:56.473Z,11.00
2023-03-22T11:22:34.637Z,10.50
2023-03-22T11:25:11.756Z,10.30
2023-03-22T11:27:53.287Z,11.70
2023-03-22T11:30:28.185Z,10.60
2023-03-22T11:33:11.467Z,10.20
2023-03-22T11:35:46.110Z,12.20
2023-03-22T11:38:37.826Z,10.80
2023-03-22T11:41:14.287Z,10.10
2023-03-22T11:43:55.063Z,11.10
2023-03-22T11:46:37.043Z,11.60
2023-03-22T11:49:10.757Z,10.20
2023-03-22T11:51:48.771Z,10.90
2023-03-22T11:54:27.200Z,11.80
2023-03-22T11:57:02.221Z,10.10
2023-03-22T11:59:51.051Z,11.00
2023-03-22T12:02:26.860Z,10.60
2023-03-22T12:05:03.318Z,10.00
2023-03-22T12:07:36.528Z,9.90
2023-03-22T12:10:13.540Z,10.10
2023-03-22T12:12:52.896Z,10.30
2023-03-22T12:15:26.332Z,10.70
2023-03-22T12:18:00.468Z,11.80
2023-03-22T12:20:46.546Z,11.30
2023-03-22T12:23:20.598Z,10.60
2023-03-22T12:25:57.528Z,10.10
2023-03-22T12:28:33.640Z,10.10
2023-03-22T12:31:08.370Z,8.80
2023-03-22T12:33:50.869Z,9.00
2023-03-22T12:36:25.386Z,10.20
2023-03-22T12:39:00.703Z,10.40
2023-03-22T12:41:35.645Z,8.30
2023-03-22T12:44:11.646Z,7.80
2023-03-22T12:46:50.830Z,7.50
2023-03-22T12:49:27.811Z,9.00
2023-03-22T12:52:04.920Z,8.50
2023-03-22T12:54:38.665Z,8.80
2023-03-22T12:57:11.743Z,8.00
2023-03-22T12:59:49.509Z,8.30
2023-03-22T13:02:24.877Z,7.90
2023-03-22T13:05:00.258Z,8.60
2023-03-22T13:07:41.729Z,8.90
2023-03-22T13:10:49.720Z,7.20
2023-03-22T13:13:37.069Z,7.40
2023-03-22T13:16:22.703Z,7.20
2023-03-22T13:19:18.802Z,6.20
2023-03-22T13:21:54.508Z,6.40
2023-03-22T13:24:27.619Z,7.70
2023-03-22T13:27:00.695Z,7.00
2023-03-22T13:29:39.156Z,7.70
2023-03-22T13:32:28.713Z,7.20
2023-03-22T13:35:01.833Z,7.60
2023-03-22T13:37:37.054Z,6.20
2023-03-22T13:40:17.559Z,7.40
2023-03-22T13:42:50.612Z,7.40
2023-03-22T13:45:33.982Z,7.40
2023-03-22T13:48:11.552Z,8.90
2023-03-22T13:50:45.009Z,7.40
2023-03-22T13:53:25.953Z,7.90
2023-03-22T13:56:04.884Z,7.50
2023-03-22T13:58:50.186Z,7.10
2023-03-22T14:01:35.266Z,6.90
2023-03-22T14:04:10.944Z,5.70
2023-03-22T14:06:48.998Z,5.90
2023-03-22T14:09:26.862Z,6.90
2023-03-22T14:12:02.369Z,6.70
2023-03-22T14:14:38.185Z,6.20
2023-03-22T14:17:17.860Z,7.20
2023-03-22T14:19:50.763Z,6.40
